Time;durP1;ratioP1;P1;durP2;ratioP2;P2;SDS_P1;SDS_P2;PMS_P1;PMS_P2;Temp;Humidity;BMP_temperature;BMP_pressure;BME280_temperature;BME280_humidity;BME280_pressure;Samples;Min_cycle;Max_cycle;Signal;HPM_P1;HPM_P2
2022/10/03 00:01:08;;;;;;;2.30;2.10;;;10.00;99.90;;;;;;486051;242;28081;-77
2022/10/03 00:03:09;;;;;;;1.90;1.80;;;9.90;99.90;;;;;;486064;242;27971;-77
2022/10/03 00:05:11;;;;;;;2.30;2.10;;;10.00;99.90;;;;;;486030;242;27715;-78
2022/10/03 00:07:12;;;;;;;2.43;2.23;;;10.10;99.90;;;;;;485990;242;27688;-76
2022/10/03 00:09:13;;;;;;;2.57;2.37;;;10.00;99.90;;;;;;486076;241;28049;-77
2022/10/03 00:11:14;;;;;;;2.40;2.20;;;10.00;99.90;;;;;;486073;242;28685;-77
2022/10/03 00:13:16;;;;;;;2.00;1.90;;;10.00;99.90;;;;;;486087;242;28371;-77
2022/10/03 00:15:17;;;;;;;2.23;2.03;;;9.90;99.90;;;;;;486057;240;27904;-79
2022/10/03 00:17:18;;;;;;;2.30;2.00;;;9.90;99.90;;;;;;486005;242;28007;-78
2022/10/03 00:19:19;;;;;;;1.80;1.70;;;10.00;99.90;;;;;;486055;242;28085;-77
2022/10/03 00:21:21;;;;;;;1.90;1.80;;;10.00;99.90;;;;;;486066;240;27908;-77
2022/10/03 00:23:22;;;;;;;2.10;2.00;;;10.00;99.90;;;;;;486059;241;27942;-77
2022/10/03 00:25:23;;;;;;;1.87;1.77;;;9.90;99.90;;;;;;486049;242;27903;-78
2022/10/03 00:27:24;;;;;;;2.00;1.90;;;9.90;99.90;;;;;;486005;245;28134;-77
2022/10/03 00:29:26;;;;;;;5.33;2.40;;;9.90;99.90;;;;;;486065;241;28055;-78
2022/10/03 00:31:27;;;;;;;1.90;1.80;;;9.80;99.90;;;;;;486066;245;28053;-78
2022/10/03 00:33:28;;;;;;;2.00;1.90;;;9.90;99.90;;;;;;486058;242;28011;-78
2022/10/03 00:35:30;;;;;;;2.30;2.10;;;9.30;99.90;;;;;;486054;242;28033;-77
2022/10/03 00:37:31;;;;;;;2.13;1.93;;;9.90;99.90;;;;;;485993;242;27976;-78
2022/10/03 00:39:32;;;;;;;1.90;1.80;;;9.80;99.90;;;;;;486082;245;28545;-78
2022/10/03 00:41:33;;;;;;;2.17;1.97;;;9.90;99.90;;;;;;486058;240;28103;-79
2022/10/03 00:43:34;;;;;;;1.87;1.77;;;9.80;99.90;;;;;;486067;240;27987;-77
2022/10/03 00:45:36;;;;;;;1.90;1.80;;;9.80;99.90;;;;;;486056;245;28585;-77
2022/10/03 00:47:39;;;;;;;1.87;1.70;;;9.80;99.90;;;;;;486010;245;27916;-77
2022/10/03 00:49:38;;;;;;;2.27;2.07;;;9.80;99.90;;;;;;485930;242;27764;-78
2022/10/03 00:51:39;;;;;;;1.70;1.60;;;9.80;99.90;;;;;;486070;242;27941;-76
2022/10/03 00:53:41;;;;;;;1.93;1.73;;;9.80;99.90;;;;;;486076;242;27491;-77
2022/10/03 00:55:42;;;;;;;1.87;1.77;;;9.80;99.90;;;;;;486048;245;28015;-77
2022/10/03 00:57:45;;;;;;;1.90;1.80;;;9.80;99.90;;;;;;486032;242;27737;-77
2022/10/03 00:59:44;;;;;;;2.20;2.00;;;9.80;99.90;;;;;;485978;242;27910;-77
2022/10/03 01:01:46;;;;;;;2.13;1.93;;;9.70;99.90;;;;;;486073;240;28080;-77
2022/10/03 01:03:47;;;;;;;1.80;1.70;;;9.70;99.90;;;;;;486066;240;27860;-77
2022/10/03 01:05:48;;;;;;;1.90;1.80;;;9.60;99.90;;;;;;486050;242;27935;-77
2022/10/03 01:07:49;;;;;;;1.93;1.83;;;9.60;99.90;;;;;;485985;242;28010;-79
2022/10/03 01:09:51;;;;;;;2.53;2.33;;;9.50;99.90;;;;;;486054;240;27976;-77
2022/10/03 01:11:52;;;;;;;2.10;2.00;;;9.50;99.90;;;;;;486043;242;27888;-77
2022/10/03 01:13:53;;;;;;;1.80;1.70;;;9.40;99.90;;;;;;486053;242;28517;-76
2022/10/03 01:15:54;;;;;;;1.73;1.63;;;9.50;99.90;;;;;;484741;234;28536;-77
2022/10/03 01:17:56;;;;;;;1.80;1.67;;;9.40;99.90;;;;;;484876;234;28529;-78
2022/10/03 01:19:57;;;;;;;1.90;1.80;;;9.40;99.90;;;;;;484999;234;28484;-78
2022/10/03 01:21:58;;;;;;;1.70;1.60;;;9.40;99.90;;;;;;484941;234;28560;-78
2022/10/03 01:23:59;;;;;;;1.83;1.73;;;9.30;99.90;;;;;;485006;234;27524;-77
2022/10/03 01:26:01;;;;;;;1.60;1.50;;;9.30;99.90;;;;;;484957;239;28011;-79
2022/10/03 01:30:24;;;;;;;1.60;1.50;;;9.30;99.90;;;;;;484956;241;27900;-78
2022/10/03 01:32:25;;;;;;;1.70;1.60;;;9.30;99.90;;;;;;485008;234;27945;-79
2022/10/03 01:34:26;;;;;;;1.80;1.70;;;9.40;99.90;;;;;;484931;234;27931;-77
2022/10/03 01:36:28;;;;;;;1.60;1.50;;;9.30;99.90;;;;;;484952;234;29288;-77
2022/10/03 01:38:29;;;;;;;1.50;1.40;;;9.30;99.90;;;;;;484945;234;28871;-79
2022/10/03 01:40:30;;;;;;;1.10;1.10;;;9.30;99.90;;;;;;484999;243;28654;-79
2022/10/03 01:42:31;;;;;;;2.40;1.33;;;9.30;99.90;;;;;;484955;234;28046;-78
2022/10/03 01:44:34;;;;;;;1.40;1.40;;;9.20;99.90;;;;;;484985;234;28567;-77
2022/10/03 01:46:34;;;;;;;1.50;1.40;;;9.20;99.90;;;;;;484858;234;28536;-77
2022/10/03 01:48:35;;;;;;;1.50;1.40;;;9.00;99.90;;;;;;485006;234;27764;-78
2022/10/03 01:50:36;;;;;;;1.60;1.50;;;9.50;99.90;;;;;;484946;243;28024;-77
2022/10/03 01:52:38;;;;;;;1.20;1.20;;;9.20;99.90;;;;;;484993;234;27948;-77
2022/10/03 01:54:39;;;;;;;1.33;1.30;;;9.20;99.90;;;;;;484942;234;27950;-77
2022/10/03 01:56:40;;;;;;;1.40;1.40;;;9.20;99.90;;;;;;484963;242;27749;-77
2022/10/03 01:58:41;;;;;;;1.30;1.30;;;9.20;99.90;;;;;;484957;234;27969;-78
2022/10/03 02:00:43;;;;;;;1.30;1.30;;;9.10;99.90;;;;;;485001;243;27853;-76
2022/10/03 02:02:44;;;;;;;1.00;1.00;;;9.20;99.90;;;;;;484957;243;27822;-76
2022/10/03 02:04:45;;;;;;;1.30;1.30;;;9.20;99.90;;;;;;483142;234;27614;-77
2022/10/03 02:06:46;;;;;;;1.20;1.20;;;9.10;99.90;;;;;;476470;246;28012;-77
2022/10/03 02:08:48;;;;;;;1.20;1.10;;;9.10;99.90;;;;;;463070;254;28020;-77
2022/10/03 02:10:49;;;;;;;1.30;1.20;;;9.00;99.90;;;;;;476538;237;27995;-77
2022/10/03 02:12:50;;;;;;;1.20;1.20;;;8.90;99.90;;;;;;463082;248;28061;-77
2022/10/03 02:14:51;;;;;;;1.10;1.10;;;8.90;99.90;;;;;;463074;254;28639;-77
2022/10/03 02:16:56;;;;;;;1.60;1.50;;;9.00;99.90;;;;;;463023;251;28610;-79
2022/10/03 02:18:54;;;;;;;1.50;1.40;;;8.80;99.90;;;;;;462920;254;29036;-78
2022/10/03 02:20:55;;;;;;;1.47;1.37;;;8.90;99.90;;;;;;476581;237;28650;-78
2022/10/03 02:22:56;;;;;;;1.47;1.37;;;9.40;99.90;;;;;;476510;237;28216;-78
2022/10/03 02:24:58;;;;;;;1.30;1.30;;;8.90;99.90;;;;;;463074;247;28027;-79
2022/10/03 02:26:59;;;;;;;1.20;1.20;;;9.40;99.90;;;;;;468201;246;27600;-77
2022/10/03 02:29:00;;;;;;;1.53;1.43;;;8.90;99.90;;;;;;468245;246;28015;-77
2022/10/03 02:31:01;;;;;;;1.30;1.20;;;9.20;99.90;;;;;;468255;246;27492;-76
2022/10/03 02:33:03;;;;;;;1.50;1.40;;;8.80;99.90;;;;;;468246;246;27924;-78
2022/10/03 02:35:06;;;;;;;1.30;1.30;;;8.80;99.90;;;;;;468243;246;28002;-77
2022/10/03 02:37:05;;;;;;;1.23;1.13;;;8.80;99.90;;;;;;468121;246;27827;-77
2022/10/03 02:39:06;;;;;;;1.20;1.20;;;9.00;99.90;;;;;;468240;246;27981;-77
2022/10/03 02:41:08;;;;;;;1.20;1.20;;;8.60;99.90;;;;;;468255;246;27845;-76
2022/10/03 02:43:09;;;;;;;1.40;1.30;;;8.60;99.90;;;;;;468234;246;27998;-78
2022/10/03 02:45:10;;;;;;;1.17;1.17;;;7.80;99.90;;;;;;468225;246;28099;-77
2022/10/03 02:47:11;;;;;;;1.30;1.20;;;8.60;99.90;;;;;;468172;246;27949;-78
2022/10/03 02:49:13;;;;;;;1.40;1.30;;;8.50;99.90;;;;;;468240;254;28052;-77
2022/10/03 02:51:14;;;;;;;1.40;1.30;;;8.50;99.90;;;;;;468252;246;28379;-77
2022/10/03 02:53:15;;;;;;;1.20;1.20;;;8.40;99.90;;;;;;468227;246;28633;-78
2022/10/03 02:55:16;;;;;;;1.00;1.00;;;8.50;99.90;;;;;;468213;246;28289;-78
2022/10/03 02:57:18;;;;;;;1.03;1.03;;;8.40;99.90;;;;;;468207;246;28506;-77
2022/10/03 02:59:19;;;;;;;1.03;1.03;;;7.60;99.90;;;;;;468250;246;27728;-78
2022/10/03 03:01:20;;;;;;;1.53;1.10;;;8.50;99.90;;;;;;468238;246;27897;-77
2022/10/03 03:03:21;;;;;;;1.03;1.03;;;8.50;99.90;;;;;;468257;246;27923;-77
2022/10/03 03:05:23;;;;;;;1.13;1.13;;;8.10;99.90;;;;;;468240;246;27898;-77
2022/10/03 03:07:25;;;;;;;1.00;1.00;;;8.50;99.90;;;;;;468175;246;27770;-78
2022/10/03 03:09:29;;;;;;;0.97;0.97;;;8.40;99.90;;;;;;468203;246;27951;-76
2022/10/03 03:11:26;;;;;;;1.00;1.00;;;7.70;99.90;;;;;;468022;246;27773;-78
2022/10/03 03:13:28;;;;;;;1.10;1.10;;;7.40;99.90;;;;;;468228;250;28066;-78
2022/10/03 03:15:29;;;;;;;1.10;1.10;;;8.20;99.90;;;;;;473134;242;28151;-78
2022/10/03 03:17:30;;;;;;;1.17;1.17;;;8.20;99.90;;;;;;484593;240;28097;-77
2022/10/03 03:19:31;;;;;;;1.10;1.10;;;7.60;99.90;;;;;;484612;241;28225;-78
2022/10/03 03:21:33;;;;;;;0.97;0.97;;;8.10;99.90;;;;;;484626;242;28166;-78
2022/10/03 03:23:35;;;;;;;1.00;1.00;;;8.00;99.90;;;;;;484638;242;27972;-76
2022/10/03 03:25:35;;;;;;;0.90;0.90;;;8.10;99.90;;;;;;484596;245;28603;-77
2022/10/03 03:27:36;;;;;;;1.10;1.10;;;7.70;99.90;;;;;;484601;242;28581;-77
2022/10/03 03:29:38;;;;;;;1.10;1.10;;;8.30;99.90;;;;;;484646;242;28637;-78
2022/10/03 03:31:40;;;;;;;1.13;1.13;;;7.90;99.90;;;;;;484650;241;28626;-77
2022/10/03 03:33:40;;;;;;;1.10;1.10;;;7.80;99.90;;;;;;484573;242;28903;-77
2022/10/03 03:35:45;;;;;;;1.00;1.00;;;7.80;99.90;;;;;;484624;242;28795;-78
2022/10/03 03:37:43;;;;;;;0.93;0.93;;;7.80;99.90;;;;;;484378;242;28368;-77
2022/10/03 03:39:44;;;;;;;1.00;1.00;;;7.70;99.90;;;;;;484650;242;28820;-77
2022/10/03 03:41:45;;;;;;;1.20;1.20;;;7.90;99.90;;;;;;484654;242;27967;-77
2022/10/03 03:43:46;;;;;;;1.10;1.10;;;8.50;99.90;;;;;;484667;242;27566;-76
2022/10/03 03:45:49;;;;;;;0.90;0.90;;;7.70;99.90;;;;;;484347;242;28493;-77
2022/10/03 03:47:49;;;;;;;1.00;1.00;;;7.60;99.90;;;;;;484561;242;28555;-76
2022/10/03 03:49:50;;;;;;;1.00;1.00;;;7.30;99.90;;;;;;484663;241;28051;-77
2022/10/03 03:51:51;;;;;;;0.90;0.90;;;7.70;99.90;;;;;;484659;242;28062;-78
2022/10/03 03:53:53;;;;;;;1.00;1.00;;;7.70;99.90;;;;;;484651;242;28282;-77
2022/10/03 03:55:55;;;;;;;0.83;0.83;;;7.30;99.90;;;;;;484633;242;27872;-77
2022/10/03 03:57:56;;;;;;;1.00;1.00;;;7.60;99.90;;;;;;484555;242;29268;-77
2022/10/03 03:59:56;;;;;;;0.90;0.90;;;7.60;99.90;;;;;;484686;242;28842;-77
2022/10/03 04:01:58;;;;;;;0.90;0.90;;;7.60;99.90;;;;;;484659;242;28614;-79
2022/10/03 04:03:59;;;;;;;1.00;1.00;;;7.40;99.90;;;;;;484669;242;28273;-78
2022/10/03 04:06:02;;;;;;;0.97;0.97;;;8.20;99.90;;;;;;484664;242;28066;-78
2022/10/03 04:08:01;;;;;;;0.98;0.98;;;7.50;99.90;;;;;;484478;242;27976;-78
2022/10/03 04:10:03;;;;;;;1.00;1.00;;;7.20;99.90;;;;;;484633;242;27551;-77
2022/10/03 04:12:08;;;;;;;0.90;0.90;;;7.40;99.90;;;;;;484677;242;28535;-77
2022/10/03 04:14:05;;;;;;;0.93;0.93;;;7.00;99.90;;;;;;484282;242;28039;-78
2022/10/03 04:16:06;;;;;;;1.07;1.07;;;7.50;99.90;;;;;;484619;241;27559;-78
2022/10/03 04:20:27;;;;;;;1.20;1.10;;;7.30;99.90;;;;;;484671;241;27606;-77
2022/10/03 04:22:29;;;;;;;1.00;1.00;;;7.10;99.90;;;;;;484649;241;27797;-77
2022/10/03 04:24:29;;;;;;;1.10;1.10;;;7.30;99.90;;;;;;484670;242;27824;-78
2022/10/03 04:26:31;;;;;;;1.07;1.07;;;7.30;99.90;;;;;;484619;242;27542;-77
2022/10/03 04:28:33;;;;;;;0.90;0.90;;;6.60;99.90;;;;;;484641;242;28868;-77
2022/10/03 04:30:34;;;;;;;0.90;0.90;;;7.20;99.90;;;;;;484618;242;28122;-77
2022/10/03 04:32:34;;;;;;;0.90;0.90;;;7.20;99.90;;;;;;484628;241;28799;-77
2022/10/03 04:34:36;;;;;;;0.90;0.90;;;7.20;99.90;;;;;;484651;246;28244;-77
2022/10/03 04:36:37;;;;;;;1.23;1.20;;;7.20;99.90;;;;;;484625;242;27459;-78
2022/10/03 04:38:38;;;;;;;1.00;1.00;;;7.10;99.90;;;;;;484663;241;27594;-78
2022/10/03 04:40:39;;;;;;;1.25;1.20;;;6.60;99.90;;;;;;484652;241;27473;-78
2022/10/03 04:42:41;;;;;;;0.98;0.98;;;6.70;99.90;;;;;;484637;242;27543;-77
2022/10/03 04:44:42;;;;;;;1.00;1.00;;;7.10;99.90;;;;;;484626;242;28653;-77
2022/10/03 04:46:44;;;;;;;0.90;0.90;;;7.10;99.90;;;;;;484616;242;28150;-78
2022/10/03 04:48:44;;;;;;;1.10;1.10;;;7.10;99.90;;;;;;484572;242;27498;-77
2022/10/03 04:50:46;;;;;;;1.20;1.20;;;7.00;99.90;;;;;;484615;241;27546;-78
2022/10/03 04:52:47;;;;;;;1.20;1.20;;;7.00;99.90;;;;;;484659;242;27483;-76
2022/10/03 04:54:49;;;;;;;1.00;1.00;;;7.00;99.90;;;;;;484659;240;27628;-78
2022/10/03 04:56:49;;;;;;;1.00;1.00;;;7.60;99.90;;;;;;484533;242;27451;-77
2022/10/03 04:58:51;;;;;;;1.00;1.00;;;6.80;99.90;;;;;;484635;242;28258;-77
2022/10/03 05:00:52;;;;;;;1.00;1.00;;;6.80;99.90;;;;;;484661;242;27483;-77
2022/10/03 05:02:53;;;;;;;1.10;1.10;;;6.70;99.90;;;;;;484643;242;27505;-79
2022/10/03 05:04:55;;;;;;;0.90;0.90;;;6.70;99.90;;;;;;484662;242;27495;-77
2022/10/03 05:06:56;;;;;;;1.00;1.00;;;6.70;99.90;;;;;;484581;241;27458;-79
2022/10/03 05:08:58;;;;;;;1.10;1.10;;;6.70;99.90;;;;;;484649;245;27495;-77
2022/10/03 05:10:58;;;;;;;1.00;1.00;;;6.70;99.90;;;;;;484599;242;28201;-77
2022/10/03 05:13:00;;;;;;;1.15;1.15;;;6.70;99.90;;;;;;484628;242;28201;-80
2022/10/03 05:15:01;;;;;;;1.20;1.20;;;6.70;99.90;;;;;;484689;234;27562;-77
2022/10/03 05:17:03;;;;;;;1.15;1.15;;;6.60;99.90;;;;;;484894;234;27378;-77
2022/10/03 05:19:04;;;;;;;2.55;1.00;;;6.50;99.90;;;;;;484971;234;27477;-77
2022/10/03 05:21:05;;;;;;;1.10;1.10;;;6.50;99.90;;;;;;484904;234;27430;-78
2022/10/03 05:23:06;;;;;;;1.00;1.00;;;6.50;99.90;;;;;;485003;234;27428;-78
2022/10/03 05:25:07;;;;;;;1.10;1.10;;;6.50;99.90;;;;;;484918;234;27374;-77
2022/10/03 05:27:09;;;;;;;1.10;1.10;;;6.50;99.90;;;;;;484949;234;28066;-77
2022/10/03 05:29:10;;;;;;;1.02;1.02;;;6.60;99.90;;;;;;484898;234;27358;-76
2022/10/03 05:31:11;;;;;;;1.00;1.00;;;6.60;99.90;;;;;;484992;234;27371;-78
2022/10/03 05:33:13;;;;;;;1.20;1.20;;;6.50;99.90;;;;;;484935;234;27562;-77
2022/10/03 05:35:13;;;;;;;1.20;1.20;;;6.60;99.90;;;;;;484959;234;27458;-77
2022/10/03 05:37:15;;;;;;;1.08;1.08;;;6.50;99.90;;;;;;484869;240;27487;-79
2022/10/03 05:39:16;;;;;;;1.00;1.00;;;6.40;99.90;;;;;;484993;242;27491;-78
2022/10/03 05:41:17;;;;;;;1.00;1.00;;;6.40;99.90;;;;;;484933;243;28016;-77
2022/10/03 05:43:18;;;;;;;1.02;1.02;;;6.40;99.90;;;;;;484992;234;28118;-78
2022/10/03 05:45:22;;;;;;;1.20;1.20;;;6.40;99.90;;;;;;482930;243;27509;-77
2022/10/03 05:49:40;;;;;;;1.02;1.02;;;6.40;99.90;;;;;;463080;246;27523;-77
2022/10/03 05:51:41;;;;;;;1.10;1.10;;;6.40;99.90;;;;;;463070;253;28117;-77
2022/10/03 05:53:43;;;;;;;1.35;1.35;;;6.40;99.90;;;;;;463066;251;27555;-78
2022/10/03 05:55:44;;;;;;;1.05;1.05;;;6.40;99.90;;;;;;481761;241;27549;-77
2022/10/03 05:57:45;;;;;;;1.33;1.23;;;6.40;99.90;;;;;;463015;246;27538;-77
2022/10/03 05:59:46;;;;;;;1.20;1.20;;;6.50;99.90;;;;;;463066;246;27532;-77
2022/10/03 06:01:48;;;;;;;1.70;1.60;;;6.40;99.90;;;;;;463078;246;27610;-77
2022/10/03 06:03:49;;;;;;;1.50;1.40;;;6.40;99.90;;;;;;463047;253;27505;-76
2022/10/03 06:05:51;;;;;;;1.20;1.20;;;6.30;99.90;;;;;;463066;246;28220;-77
2022/10/03 06:07:51;;;;;;;1.30;1.30;;;6.30;99.90;;;;;;463010;253;28273;-79
2022/10/03 06:09:53;;;;;;;1.05;1.05;;;6.40;99.90;;;;;;463078;254;27515;-80
2022/10/03 06:11:54;;;;;;;1.10;1.10;;;6.40;99.90;;;;;;463051;251;27579;-77
2022/10/03 06:13:57;;;;;;;1.30;1.30;;;6.40;99.90;;;;;;463064;246;27619;-77
2022/10/03 06:15:56;;;;;;;1.50;1.40;;;6.40;99.90;;;;;;462953;246;27505;-79
2022/10/03 06:17:58;;;;;;;1.35;1.30;;;6.50;99.90;;;;;;463009;246;27626;-77
2022/10/03 06:19:59;;;;;;;1.60;1.50;;;6.50;99.90;;;;;;463067;247;27669;-77
2022/10/03 06:22:00;;;;;;;1.20;1.20;;;6.50;99.90;;;;;;472820;246;28063;-79
2022/10/03 06:24:01;;;;;;;1.23;1.20;;;6.60;99.90;;;;;;472807;242;27554;-77
2022/10/03 06:26:03;;;;;;;1.37;1.33;;;6.60;99.90;;;;;;472787;242;27507;-77
2022/10/03 06:28:04;;;;;;;1.37;1.33;;;6.60;99.90;;;;;;472781;244;27503;-77
2022/10/03 06:30:10;;;;;;;1.58;1.48;;;6.60;99.90;;;;;;472810;250;27516;-79
2022/10/03 06:32:06;;;;;;;1.27;1.27;;;6.60;99.90;;;;;;472529;246;27507;-77
2022/10/03 06:34:08;;;;;;;1.70;1.60;;;6.60;99.90;;;;;;472790;242;27555;-78
2022/10/03 06:36:09;;;;;;;1.60;1.50;;;6.60;99.90;;;;;;472744;242;28073;-75
2022/10/03 06:38:10;;;;;;;1.15;1.15;;;6.80;99.90;;;;;;472809;242;27493;-77
2022/10/03 06:40:11;;;;;;;1.70;1.60;;;7.00;99.90;;;;;;472818;242;27535;-77
2022/10/03 06:42:13;;;;;;;1.10;1.10;;;7.00;99.90;;;;;;472822;242;27504;-78
2022/10/03 06:44:14;;;;;;;1.25;1.25;;;7.10;99.90;;;;;;472820;248;27519;-79
2022/10/03 06:46:15;;;;;;;1.45;1.40;;;7.20;99.90;;;;;;472752;242;27521;-79
2022/10/03 06:48:16;;;;;;;1.53;1.43;;;7.30;99.90;;;;;;472816;242;28241;-77
2022/10/03 06:50:18;;;;;;;1.30;1.30;;;7.50;99.90;;;;;;472816;250;28972;-79
2022/10/03 06:52:19;;;;;;;1.40;1.30;;;7.60;99.90;;;;;;472836;245;27499;-78
2022/10/03 06:54:20;;;;;;;1.80;1.70;;;7.70;99.90;;;;;;472793;242;28468;-79
2022/10/03 06:56:21;;;;;;;1.57;1.47;;;7.70;99.90;;;;;;472759;246;28702;-80
2022/10/03 06:58:23;;;;;;;1.50;1.40;;;6.80;99.90;;;;;;472811;242;27748;-78
2022/10/03 07:00:24;;;;;;;1.90;1.80;;;7.60;99.90;;;;;;472819;245;27969;-77
2022/10/03 07:02:25;;;;;;;1.60;1.50;;;7.60;99.90;;;;;;472833;242;28246;-78
2022/10/03 07:04:26;;;;;;;1.80;1.70;;;7.50;99.90;;;;;;472780;246;28943;-78
2022/10/03 07:06:28;;;;;;;2.10;2.00;;;7.60;99.90;;;;;;472774;250;28004;-78
2022/10/03 07:08:29;;;;;;;1.90;1.80;;;7.60;99.90;;;;;;472784;250;28078;-77
2022/10/03 07:10:30;;;;;;;2.03;1.83;;;7.70;99.90;;;;;;472788;246;27947;-78
2022/10/03 07:12:32;;;;;;;1.97;1.87;;;7.80;99.90;;;;;;472798;242;27988;-78
2022/10/03 07:14:35;;;;;;;2.47;2.20;;;7.90;99.90;;;;;;472774;242;28281;-79
2022/10/03 07:16:34;;;;;;;1.97;1.87;;;7.90;99.90;;;;;;472684;243;28650;-77
2022/10/03 07:18:36;;;;;;;2.00;1.90;;;8.00;99.90;;;;;;472816;242;28517;-78
2022/10/03 07:20:37;;;;;;;2.40;2.20;;;8.10;99.90;;;;;;472816;246;28749;-77
2022/10/03 07:22:38;;;;;;;2.10;2.00;;;8.20;99.90;;;;;;472814;242;28372;-77
2022/10/03 07:24:42;;;;;;;2.27;2.17;;;8.20;99.90;;;;;;472817;246;28050;-77
2022/10/03 07:26:40;;;;;;;5.03;2.40;;;8.30;99.90;;;;;;472655;242;27969;-78
2022/10/03 07:28:41;;;;;;;2.43;2.23;;;8.40;99.90;;;;;;472841;242;27918;-77
2022/10/03 07:30:43;;;;;;;2.20;2.10;;;8.50;99.90;;;;;;472839;246;28173;-78
2022/10/03 07:32:44;;;;;;;2.57;2.37;;;8.60;99.90;;;;;;472838;242;27995;-78
2022/10/03 07:34:45;;;;;;;2.50;2.37;;;8.70;99.90;;;;;;472818;246;27985;-78
2022/10/03 07:39:08;;;;;;;2.10;2.00;;;8.80;99.90;;;;;;472822;242;28213;-78
2022/10/03 07:41:07;;;;;;;2.10;2.00;;;8.90;99.90;;;;;;472700;248;28446;-77
2022/10/03 07:43:08;;;;;;;2.40;2.20;;;8.90;99.90;;;;;;472839;246;28471;-77
2022/10/03 07:45:09;;;;;;;2.50;2.30;;;8.90;99.90;;;;;;472819;250;28579;-77
2022/10/03 07:47:11;;;;;;;2.23;2.13;;;9.00;99.90;;;;;;472794;242;28010;-78
2022/10/03 07:49:12;;;;;;;2.40;2.20;;;9.10;99.90;;;;;;472847;246;27858;-78
2022/10/03 07:51:13;;;;;;;3.57;3.27;;;9.20;99.90;;;;;;472818;246;27960;-77
2022/10/03 07:53:14;;;;;;;2.67;2.40;;;9.30;99.90;;;;;;472840;248;28115;-78
2022/10/03 07:55:16;;;;;;;5.90;2.80;;;9.30;99.90;;;;;;472811;242;27985;-80
2022/10/03 07:57:20;;;;;;;3.43;3.13;;;9.40;99.90;;;;;;472756;242;28105;-77
2022/10/03 07:59:18;;;;;;;3.33;3.00;;;9.50;99.90;;;;;;472658;252;27742;-78
2022/10/03 08:01:22;;;;;;;3.80;3.30;;;9.60;99.90;;;;;;472811;242;28009;-78
2022/10/03 08:03:21;;;;;;;3.40;3.07;;;9.70;99.90;;;;;;472572;242;28103;-77
2022/10/03 08:05:23;;;;;;;4.20;3.67;;;9.70;99.90;;;;;;472812;246;27879;-78
2022/10/03 08:07:24;;;;;;;6.27;3.60;;;9.70;99.90;;;;;;472700;244;27921;-78
2022/10/03 08:09:24;;;;;;;3.80;3.40;;;9.70;99.90;;;;;;472763;242;27966;-78
2022/10/03 08:11:26;;;;;;;5.00;3.83;;;9.60;99.90;;;;;;472831;242;28064;-78
2022/10/03 08:13:27;;;;;;;5.17;3.77;;;9.60;99.90;;;;;;472826;242;28218;-77
2022/10/03 08:15:28;;;;;;;4.03;3.63;;;9.60;99.90;;;;;;472807;246;28800;-77
2022/10/03 08:17:29;;;;;;;4.00;3.60;;;9.60;99.90;;;;;;472766;242;28622;-78
2022/10/03 08:19:31;;;;;;;4.00;3.43;;;9.50;99.90;;;;;;472826;242;28742;-77
2022/10/03 08:21:33;;;;;;;5.53;3.83;;;9.50;99.90;;;;;;472831;246;28090;-77
2022/10/03 08:23:33;;;;;;;4.80;4.20;;;9.60;99.90;;;;;;472781;242;28084;-78
2022/10/03 08:25:34;;;;;;;5.20;4.23;;;9.70;99.90;;;;;;472809;242;27843;-77
2022/10/03 08:27:36;;;;;;;7.60;4.57;;;9.80;99.90;;;;;;472780;242;27996;-78
2022/10/03 08:29:37;;;;;;;5.30;4.10;;;9.80;99.90;;;;;;472826;242;28045;-77
2022/10/03 08:31:41;;;;;;;5.23;3.63;;;9.70;99.90;;;;;;472835;245;28035;-77
2022/10/03 08:33:40;;;;;;;4.20;3.80;;;9.80;99.90;;;;;;472683;242;28114;-78
2022/10/03 08:35:41;;;;;;;5.17;4.17;;;9.80;99.90;;;;;;469996;245;27974;-77
2022/10/03 08:37:42;;;;;;;3.80;3.50;;;9.90;99.90;;;;;;476574;241;27788;-78
2022/10/03 08:39:43;;;;;;;5.60;4.90;;;9.90;99.90;;;;;;476567;237;27673;-77
2022/10/03 08:41:44;;;;;;;5.90;4.30;;;9.90;99.90;;;;;;476622;245;27832;-77
2022/10/03 08:43:46;;;;;;;4.63;4.13;;;9.90;99.90;;;;;;476539;237;28457;-78
2022/10/03 08:45:48;;;;;;;4.77;4.37;;;9.90;99.90;;;;;;476609;246;28529;-79
2022/10/03 08:47:48;;;;;;;4.87;3.60;;;9.90;99.90;;;;;;476470;237;28890;-80
2022/10/03 08:49:50;;;;;;;4.73;4.07;;;9.90;99.90;;;;;;476619;237;28631;-78
2022/10/03 08:51:51;;;;;;;4.17;3.77;;;10.00;99.90;;;;;;476542;237;27622;-78
2022/10/03 08:53:52;;;;;;;4.23;3.83;;;10.10;99.90;;;;;;476605;237;27832;-78
2022/10/03 08:55:54;;;;;;;5.03;3.97;;;10.10;99.90;;;;;;476551;237;27887;-77
2022/10/03 08:57:54;;;;;;;4.67;4.07;;;10.10;99.90;;;;;;476537;241;27891;-77
2022/10/03 08:59:56;;;;;;;6.50;4.07;;;10.20;99.90;;;;;;476583;246;27908;-78
2022/10/03 09:01:57;;;;;;;5.87;4.23;;;10.20;99.90;;;;;;476623;237;27867;-77
2022/10/03 09:03:58;;;;;;;6.70;4.00;;;10.20;99.90;;;;;;476542;237;27867;-78
2022/10/03 09:05:59;;;;;;;9.40;5.00;;;10.20;99.90;;;;;;476592;237;27830;-78
2022/10/03 09:08:01;;;;;;;7.87;6.03;;;10.30;99.90;;;;;;476467;246;27868;-77
2022/10/03 09:10:02;;;;;;;12.40;6.37;;;10.70;99.90;;;;;;476588;246;28423;-79
2022/10/03 09:12:03;;;;;;;16.53;6.57;;;10.90;99.90;;;;;;476558;237;28542;-78
2022/10/03 09:14:04;;;;;;;11.60;6.43;;;10.90;99.90;;;;;;476589;237;27998;-78
2022/10/03 09:16:06;;;;;;;11.23;7.07;;;10.90;99.90;;;;;;476509;237;28006;-77
2022/10/03 09:18:07;;;;;;;13.23;6.90;;;10.80;99.90;;;;;;476597;237;28009;-78
2022/10/03 09:20:08;;;;;;;10.60;6.83;;;10.80;99.90;;;;;;476581;237;27712;-78
2022/10/03 09:22:09;;;;;;;17.37;7.20;;;10.80;99.90;;;;;;476570;237;27596;-77
2022/10/03 09:24:13;;;;;;;8.00;5.43;;;10.80;99.90;;;;;;476519;237;27867;-77
2022/10/03 09:26:12;;;;;;;10.60;5.73;;;10.80;99.90;;;;;;476446;237;27767;-78
2022/10/03 09:28:16;;;;;;;8.77;5.87;;;;;;;;;;474772;246;36224;-79
2022/10/03 09:30:19;;;;;;;13.40;6.30;;;;;;;;;;476616;237;26852;-78
2022/10/03 09:32:20;;;;;;;11.10;6.33;;;10.90;99.90;;;;;;476585;237;27630;-77
2022/10/03 09:34:22;;;;;;;12.80;6.07;;;10.90;99.90;;;;;;476601;237;28640;-77
2022/10/03 09:36:23;;;;;;;8.63;6.20;;;11.00;99.90;;;;;;476483;243;28691;-77
2022/10/03 09:38:24;;;;;;;7.20;6.07;;;10.90;99.90;;;;;;476621;237;28020;-78
2022/10/03 09:40:25;;;;;;;11.10;5.80;;;10.90;99.90;;;;;;476542;246;27500;-78
2022/10/03 09:42:27;;;;;;;8.37;5.70;;;11.00;99.90;;;;;;476617;237;27805;-78
2022/10/03 09:44:28;;;;;;;14.17;5.90;;;11.20;99.90;;;;;;477329;237;27848;-78
2022/10/03 09:46:29;;;;;;;12.07;6.60;;;11.10;99.90;;;;;;484950;234;27838;-78
2022/10/03 09:48:31;;;;;;;9.83;6.20;;;11.10;99.90;;;;;;484947;234;27766;-78
2022/10/03 09:50:32;;;;;;;15.30;5.87;;;11.10;99.90;;;;;;484994;243;28048;-78
2022/10/03 09:52:33;;;;;;;8.10;5.57;;;11.20;99.90;;;;;;484934;234;28588;-79
2022/10/03 09:54:34;;;;;;;11.60;5.20;;;11.30;99.90;;;;;;484902;234;28662;-77
2022/10/03 09:56:35;;;;;;;10.37;5.40;;;11.30;99.90;;;;;;484898;234;28683;-77
2022/10/03 09:58:38;;;;;;;10.23;6.10;;;11.30;99.90;;;;;;484999;234;28021;-78
2022/10/03 10:00:38;;;;;;;13.43;5.93;;;11.30;99.90;;;;;;484908;234;27906;-77
2022/10/03 10:02:39;;;;;;;9.50;5.60;;;11.30;99.90;;;;;;485011;234;27931;-79
2022/10/03 10:04:41;;;;;;;8.20;5.73;;;11.20;99.90;;;;;;484935;234;27964;-78
2022/10/03 10:06:42;;;;;;;11.10;5.83;;;11.10;99.90;;;;;;484962;242;27965;-78
2022/10/03 10:08:44;;;;;;;8.40;5.40;;;11.10;99.90;;;;;;484936;234;27994;-78
2022/10/03 10:10:44;;;;;;;9.27;5.53;;;11.10;99.90;;;;;;484991;234;27817;-78
2022/10/03 10:12:45;;;;;;;9.10;5.23;;;11.00;99.90;;;;;;484957;241;28646;-81
2022/10/03 10:14:47;;;;;;;9.83;5.23;;;11.10;99.90;;;;;;484964;234;28510;-78
2022/10/03 10:16:48;;;;;;;8.50;5.40;;;11.00;99.90;;;;;;484894;234;28350;-78
2022/10/03 10:18:49;;;;;;;7.83;4.50;;;11.10;99.90;;;;;;484991;234;27921;-79
2022/10/03 10:20:50;;;;;;;5.70;4.33;;;11.20;99.90;;;;;;484935;234;28050;-78
2022/10/03 10:22:52;;;;;;;8.73;4.70;;;11.20;99.90;;;;;;484988;234;27911;-79
2022/10/03 10:24:53;;;;;;;5.83;4.40;;;11.20;99.90;;;;;;484762;234;28014;-76
2022/10/03 10:26:54;;;;;;;20.60;5.47;;;11.00;99.90;;;;;;484942;234;27936;-78
2022/10/03 10:28:56;;;;;;;7.50;4.43;;;11.00;99.90;;;;;;484956;243;27958;-78
2022/10/03 10:30:57;;;;;;;7.87;4.60;;;10.90;99.90;;;;;;484997;234;27927;-79
2022/10/03 10:32:58;;;;;;;9.00;5.23;;;10.90;99.90;;;;;;484951;234;27804;-77
2022/10/03 10:34:59;;;;;;;8.70;4.93;;;11.10;99.90;;;;;;484972;234;27711;-79
2022/10/03 10:37:01;;;;;;;11.70;6.03;;;11.00;99.90;;;;;;484864;234;28522;-78
2022/10/03 10:39:02;;;;;;;8.20;4.57;;;11.00;99.90;;;;;;484997;242;28359;-78
2022/10/03 10:41:03;;;;;;;6.53;4.47;;;11.20;99.90;;;;;;484938;234;27943;-80
2022/10/03 10:43:05;;;;;;;11.23;5.00;;;10.60;99.90;;;;;;484996;234;27927;-78
2022/10/03 10:45:06;;;;;;;7.60;4.60;;;10.20;99.90;;;;;;484908;234;27972;-78
2022/10/03 10:47:07;;;;;;;6.60;4.50;;;11.50;99.90;;;;;;484936;234;27846;-78